sensor_id;sensor_type;location;lat;lon;timestamp;P1;durP1;ratioP1;P2;durP2;ratioP2
58760;SDS011;44529;47.464;19.014;2022-11-02T00:02:42;21.70;;;14.25;;
58760;SDS011;44529;47.464;19.014;2022-11-02T00:05:44;22.25;;;14.00;;
58760;SDS011;44529;47.464;19.014;2022-11-02T00:08:46;26.70;;;15.25;;
58760;SDS011;44529;47.464;19.014;2022-11-02T00:11:49;26.27;;;14.75;;
58760;SDS011;44529;47.464;19.014;2022-11-02T00:14:51;24.15;;;14.35;;
58760;SDS011;44529;47.464;19.014;2022-11-02T00:17:54;22.62;;;13.68;;
58760;SDS011;44529;47.464;19.014;2022-11-02T00:21:00;21.65;;;14.27;;
58760;SDS011;44529;47.464;19.014;2022-11-02T00:24:04;23.85;;;14.63;;
58760;SDS011;44529;47.464;19.014;2022-11-02T00:27:07;27.15;;;14.90;;
58760;SDS011;44529;47.464;19.014;2022-11-02T00:30:09;22.70;;;13.85;;
58760;SDS011;44529;47.464;19.014;2022-11-02T00:33:11;21.55;;;13.88;;
58760;SDS011;44529;47.464;19.014;2022-11-02T00:36:14;26.05;;;13.90;;
58760;SDS011;44529;47.464;19.014;2022-11-02T00:39:18;23.77;;;14.18;;
58760;SDS011;44529;47.464;19.014;2022-11-02T00:42:20;24.98;;;14.45;;
58760;SDS011;44529;47.464;19.014;2022-11-02T00:45:22;22.62;;;13.95;;
58760;SDS011;44529;47.464;19.014;2022-11-02T00:48:25;20.37;;;13.85;;
58760;SDS011;44529;47.464;19.014;2022-11-02T00:51:27;25.95;;;14.02;;
58760;SDS011;44529;47.464;19.014;2022-11-02T00:54:30;22.25;;;14.57;;
58760;SDS011;44529;47.464;19.014;2022-11-02T00:57:33;22.87;;;14.70;;
58760;SDS011;44529;47.464;19.014;2022-11-02T01:00:36;22.83;;;13.57;;
58760;SDS011;44529;47.464;19.014;2022-11-02T01:03:38;20.17;;;13.98;;
58760;SDS011;44529;47.464;19.014;2022-11-02T01:06:41;21.45;;;13.65;;
58760;SDS011;44529;47.464;19.014;2022-11-02T01:09:43;22.83;;;14.48;;
58760;SDS011;44529;47.464;19.014;2022-11-02T01:12:45;23.27;;;13.55;;
58760;SDS011;44529;47.464;19.014;2022-11-02T01:15:48;25.95;;;14.48;;
58760;SDS011;44529;47.464;19.014;2022-11-02T01:18:51;21.25;;;14.38;;
58760;SDS011;44529;47.464;19.014;2022-11-02T01:21:56;22.52;;;14.68;;
58760;SDS011;44529;47.464;19.014;2022-11-02T01:24:59;24.60;;;14.80;;
58760;SDS011;44529;47.464;19.014;2022-11-02T01:28:01;22.52;;;13.43;;
58760;SDS011;44529;47.464;19.014;2022-11-02T01:31:04;23.38;;;14.77;;
58760;SDS011;44529;47.464;19.014;2022-11-02T01:34:09;27.17;;;13.85;;
58760;SDS011;44529;47.464;19.014;2022-11-02T01:37:12;22.95;;;14.07;;
58760;SDS011;44529;47.464;19.014;2022-11-02T01:40:14;23.70;;;14.68;;
58760;SDS011;44529;47.464;19.014;2022-11-02T01:43:18;24.10;;;14.65;;
58760;SDS011;44529;47.464;19.014;2022-11-02T01:46:31;20.50;;;13.85;;
58760;SDS011;44529;47.464;19.014;2022-11-02T01:49:39;19.70;;;13.45;;
58760;SDS011;44529;47.464;19.014;2022-11-02T01:52:45;23.20;;;14.48;;
58760;SDS011;44529;47.464;19.014;2022-11-02T01:55:47;25.77;;;14.30;;
58760;SDS011;44529;47.464;19.014;2022-11-02T01:58:53;25.65;;;14.57;;
58760;SDS011;44529;47.464;19.014;2022-11-02T02:01:58;26.35;;;14.82;;
58760;SDS011;44529;47.464;19.014;2022-11-02T02:05:02;25.92;;;14.48;;
58760;SDS011;44529;47.464;19.014;2022-11-02T02:08:05;22.30;;;13.55;;
58760;SDS011;44529;47.464;19.014;2022-11-02T02:11:23;23.40;;;14.32;;
58760;SDS011;44529;47.464;19.014;2022-11-02T02:14:29;21.15;;;13.57;;
58760;SDS011;44529;47.464;19.014;2022-11-02T02:17:53;23.77;;;13.68;;
58760;SDS011;44529;47.464;19.014;2022-11-02T02:21:16;23.80;;;15.32;;
58760;SDS011;44529;47.464;19.014;2022-11-02T02:24:39;24.92;;;14.85;;
58760;SDS011;44529;47.464;19.014;2022-11-02T02:31:13;25.20;;;15.02;;
58760;SDS011;44529;47.464;19.014;2022-11-02T02:34:22;26.90;;;14.95;;
58760;SDS011;44529;47.464;19.014;2022-11-02T02:40:46;26.70;;;15.00;;
58760;SDS011;44529;47.464;19.014;2022-11-02T02:43:53;22.85;;;14.02;;
58760;SDS011;44529;47.464;19.014;2022-11-02T02:47:01;23.52;;;14.85;;
58760;SDS011;44529;47.464;19.014;2022-11-02T02:50:20;24.92;;;14.30;;
58760;SDS011;44529;47.464;19.014;2022-11-02T02:53:30;24.42;;;14.90;;
58760;SDS011;44529;47.464;19.014;2022-11-02T02:56:47;22.87;;;14.02;;
58760;SDS011;44529;47.464;19.014;2022-11-02T02:59:53;25.67;;;15.10;;
58760;SDS011;44529;47.464;19.014;2022-11-02T03:02:56;24.02;;;15.23;;
58760;SDS011;44529;47.464;19.014;2022-11-02T03:09:18;22.62;;;13.73;;
58760;SDS011;44529;47.464;19.014;2022-11-02T03:22:32;25.33;;;13.90;;
58760;SDS011;44529;47.464;19.014;2022-11-02T03:29:06;26.17;;;13.85;;
58760;SDS011;44529;47.464;19.014;2022-11-02T03:35:50;22.13;;;14.40;;
58760;SDS011;44529;47.464;19.014;2022-11-02T03:38:58;24.08;;;14.73;;
58760;SDS011;44529;47.464;19.014;2022-11-02T03:42:06;22.23;;;14.55;;
58760;SDS011;44529;47.464;19.014;2022-11-02T03:45:13;25.77;;;14.95;;
58760;SDS011;44529;47.464;19.014;2022-11-02T03:48:20;25.65;;;14.10;;
58760;SDS011;44529;47.464;19.014;2022-11-02T03:51:26;24.95;;;14.82;;
58760;SDS011;44529;47.464;19.014;2022-11-02T03:57:44;24.10;;;15.07;;
58760;SDS011;44529;47.464;19.014;2022-11-02T04:00:49;27.13;;;15.93;;
58760;SDS011;44529;47.464;19.014;2022-11-02T04:03:57;22.95;;;14.05;;
58760;SDS011;44529;47.464;19.014;2022-11-02T04:06:59;24.05;;;15.27;;
58760;SDS011;44529;47.464;19.014;2022-11-02T04:10:02;25.12;;;15.30;;
58760;SDS011;44529;47.464;19.014;2022-11-02T04:13:04;28.92;;;16.67;;
58760;SDS011;44529;47.464;19.014;2022-11-02T04:16:32;25.45;;;15.80;;
58760;SDS011;44529;47.464;19.014;2022-11-02T04:19:36;26.00;;;15.60;;
58760;SDS011;44529;47.464;19.014;2022-11-02T04:22:38;22.90;;;14.35;;
58760;SDS011;44529;47.464;19.014;2022-11-02T04:29:04;27.10;;;14.75;;
58760;SDS011;44529;47.464;19.014;2022-11-02T04:32:06;23.08;;;15.40;;
58760;SDS011;44529;47.464;19.014;2022-11-02T04:35:09;24.58;;;15.45;;
58760;SDS011;44529;47.464;19.014;2022-11-02T04:38:12;26.60;;;14.57;;
58760;SDS011;44529;47.464;19.014;2022-11-02T04:41:33;27.00;;;14.10;;
58760;SDS011;44529;47.464;19.014;2022-11-02T04:44:45;21.67;;;14.07;;
58760;SDS011;44529;47.464;19.014;2022-11-02T04:47:48;25.00;;;14.98;;
58760;SDS011;44529;47.464;19.014;2022-11-02T04:50:50;23.85;;;14.87;;
58760;SDS011;44529;47.464;19.014;2022-11-02T04:53:53;24.87;;;14.95;;
58760;SDS011;44529;47.464;19.014;2022-11-02T04:56:57;22.58;;;14.65;;
58760;SDS011;44529;47.464;19.014;2022-11-02T05:00:00;22.40;;;14.68;;
58760;SDS011;44529;47.464;19.014;2022-11-02T05:03:03;29.65;;;15.75;;
58760;SDS011;44529;47.464;19.014;2022-11-02T05:06:13;25.77;;;14.95;;
58760;SDS011;44529;47.464;19.014;2022-11-02T05:09:16;27.55;;;16.17;;
58760;SDS011;44529;47.464;19.014;2022-11-02T05:12:18;25.35;;;15.90;;
58760;SDS011;44529;47.464;19.014;2022-11-02T05:15:22;24.48;;;16.10;;
58760;SDS011;44529;47.464;19.014;2022-11-02T05:18:26;26.67;;;16.23;;
58760;SDS011;44529;47.464;19.014;2022-11-02T05:21:29;25.85;;;15.63;;
58760;SDS011;44529;47.464;19.014;2022-11-02T05:24:32;26.55;;;16.15;;
58760;SDS011;44529;47.464;19.014;2022-11-02T05:27:34;26.85;;;16.15;;
58760;SDS011;44529;47.464;19.014;2022-11-02T05:30:37;24.30;;;14.85;;
58760;SDS011;44529;47.464;19.014;2022-11-02T05:33:40;24.27;;;15.70;;
58760;SDS011;44529;47.464;19.014;2022-11-02T05:36:42;26.23;;;15.20;;
58760;SDS011;44529;47.464;19.014;2022-11-02T05:39:44;25.92;;;15.70;;
58760;SDS011;44529;47.464;19.014;2022-11-02T05:42:57;27.30;;;15.50;;
58760;SDS011;44529;47.464;19.014;2022-11-02T05:46:00;26.77;;;16.62;;
58760;SDS011;44529;47.464;19.014;2022-11-02T05:49:03;29.52;;;16.33;;
58760;SDS011;44529;47.464;19.014;2022-11-02T05:52:06;25.92;;;15.23;;
58760;SDS011;44529;47.464;19.014;2022-11-02T05:55:08;27.65;;;16.25;;
58760;SDS011;44529;47.464;19.014;2022-11-02T05:58:10;29.05;;;15.63;;
58760;SDS011;44529;47.464;19.014;2022-11-02T06:01:13;25.77;;;14.93;;
58760;SDS011;44529;47.464;19.014;2022-11-02T06:04:15;27.42;;;15.45;;
58760;SDS011;44529;47.464;19.014;2022-11-02T06:07:17;25.12;;;15.23;;
58760;SDS011;44529;47.464;19.014;2022-11-02T06:10:20;26.35;;;16.75;;
58760;SDS011;44529;47.464;19.014;2022-11-02T06:13:22;23.92;;;15.02;;
58760;SDS011;44529;47.464;19.014;2022-11-02T06:16:24;25.02;;;15.65;;
58760;SDS011;44529;47.464;19.014;2022-11-02T06:19:26;26.23;;;15.63;;
58760;SDS011;44529;47.464;19.014;2022-11-02T06:22:29;25.55;;;15.63;;
58760;SDS011;44529;47.464;19.014;2022-11-02T06:25:31;28.58;;;16.90;;
58760;SDS011;44529;47.464;19.014;2022-11-02T06:28:33;26.62;;;16.92;;
58760;SDS011;44529;47.464;19.014;2022-11-02T06:31:36;28.52;;;16.95;;
58760;SDS011;44529;47.464;19.014;2022-11-02T06:34:38;30.77;;;17.40;;
58760;SDS011;44529;47.464;19.014;2022-11-02T06:37:40;28.73;;;16.98;;
58760;SDS011;44529;47.464;19.014;2022-11-02T06:40:47;34.83;;;17.58;;
58760;SDS011;44529;47.464;19.014;2022-11-02T06:43:54;29.20;;;18.35;;
58760;SDS011;44529;47.464;19.014;2022-11-02T06:46:57;27.67;;;17.77;;
58760;SDS011;44529;47.464;19.014;2022-11-02T06:49:59;30.23;;;17.02;;
58760;SDS011;44529;47.464;19.014;2022-11-02T06:53:02;27.70;;;17.55;;
58760;SDS011;44529;47.464;19.014;2022-11-02T06:56:05;27.02;;;18.58;;
58760;SDS011;44529;47.464;19.014;2022-11-02T06:59:10;32.10;;;18.65;;
58760;SDS011;44529;47.464;19.014;2022-11-02T07:02:15;25.70;;;17.50;;
58760;SDS011;44529;47.464;19.014;2022-11-02T07:05:17;27.27;;;17.50;;
58760;SDS011;44529;47.464;19.014;2022-11-02T07:08:19;31.90;;;18.15;;
58760;SDS011;44529;47.464;19.014;2022-11-02T07:11:22;30.73;;;18.45;;
58760;SDS011;44529;47.464;19.014;2022-11-02T07:14:25;28.27;;;18.12;;
58760;SDS011;44529;47.464;19.014;2022-11-02T07:17:27;28.90;;;18.40;;
58760;SDS011;44529;47.464;19.014;2022-11-02T07:20:34;29.92;;;18.50;;
58760;SDS011;44529;47.464;19.014;2022-11-02T07:23:37;24.42;;;17.98;;
58760;SDS011;44529;47.464;19.014;2022-11-02T07:26:39;27.50;;;18.83;;
58760;SDS011;44529;47.464;19.014;2022-11-02T07:29:41;34.45;;;19.45;;
58760;SDS011;44529;47.464;19.014;2022-11-02T07:32:44;32.47;;;19.17;;
58760;SDS011;44529;47.464;19.014;2022-11-02T07:35:47;34.42;;;19.70;;
58760;SDS011;44529;47.464;19.014;2022-11-02T07:38:49;32.70;;;19.58;;
58760;SDS011;44529;47.464;19.014;2022-11-02T07:41:52;28.83;;;19.40;;
58760;SDS011;44529;47.464;19.014;2022-11-02T07:44:57;28.58;;;19.98;;
58760;SDS011;44529;47.464;19.014;2022-11-02T07:47:59;31.37;;;19.60;;
58760;SDS011;44529;47.464;19.014;2022-11-02T07:51:01;29.95;;;18.92;;
58760;SDS011;44529;47.464;19.014;2022-11-02T07:54:04;32.88;;;18.90;;
58760;SDS011;44529;47.464;19.014;2022-11-02T07:57:06;29.92;;;19.05;;
58760;SDS011;44529;47.464;19.014;2022-11-02T08:00:09;25.33;;;17.80;;
58760;SDS011;44529;47.464;19.014;2022-11-02T08:03:12;26.50;;;17.65;;
58760;SDS011;44529;47.464;19.014;2022-11-02T08:06:16;26.48;;;18.27;;
58760;SDS011;44529;47.464;19.014;2022-11-02T08:09:18;27.87;;;17.73;;
58760;SDS011;44529;47.464;19.014;2022-11-02T08:12:20;31.48;;;18.92;;
58760;SDS011;44529;47.464;19.014;2022-11-02T08:15:23;29.52;;;18.75;;
58760;SDS011;44529;47.464;19.014;2022-11-02T08:18:26;27.67;;;18.23;;
58760;SDS011;44529;47.464;19.014;2022-11-02T08:21:29;27.67;;;18.55;;
58760;SDS011;44529;47.464;19.014;2022-11-02T08:24:31;27.75;;;18.85;;
58760;SDS011;44529;47.464;19.014;2022-11-02T08:27:34;30.45;;;17.90;;
58760;SDS011;44529;47.464;19.014;2022-11-02T08:30:36;30.02;;;19.55;;
58760;SDS011;44529;47.464;19.014;2022-11-02T08:33:39;28.45;;;19.25;;
58760;SDS011;44529;47.464;19.014;2022-11-02T08:36:41;27.55;;;19.45;;
58760;SDS011;44529;47.464;19.014;2022-11-02T08:39:43;33.47;;;19.02;;
58760;SDS011;44529;47.464;19.014;2022-11-02T08:42:45;28.58;;;18.85;;
58760;SDS011;44529;47.464;19.014;2022-11-02T08:45:48;30.58;;;20.45;;
58760;SDS011;44529;47.464;19.014;2022-11-02T08:49:11;29.70;;;18.80;;
58760;SDS011;44529;47.464;19.014;2022-11-02T08:52:14;32.13;;;17.98;;
58760;SDS011;44529;47.464;19.014;2022-11-02T08:55:16;27.23;;;18.02;;
58760;SDS011;44529;47.464;19.014;2022-11-02T08:58:18;29.35;;;18.80;;
58760;SDS011;44529;47.464;19.014;2022-11-02T09:01:20;29.02;;;19.77;;
58760;SDS011;44529;47.464;19.014;2022-11-02T09:04:23;25.00;;;18.85;;
58760;SDS011;44529;47.464;19.014;2022-11-02T09:07:25;29.87;;;20.08;;
58760;SDS011;44529;47.464;19.014;2022-11-02T09:10:28;28.55;;;19.45;;
58760;SDS011;44529;47.464;19.014;2022-11-02T09:13:31;28.55;;;20.35;;
58760;SDS011;44529;47.464;19.014;2022-11-02T09:16:34;30.10;;;20.00;;
58760;SDS011;44529;47.464;19.014;2022-11-02T09:19:42;31.85;;;20.52;;
58760;SDS011;44529;47.464;19.014;2022-11-02T09:22:44;31.50;;;20.17;;
58760;SDS011;44529;47.464;19.014;2022-11-02T09:25:48;32.13;;;21.00;;
58760;SDS011;44529;47.464;19.014;2022-11-02T09:28:51;32.67;;;21.45;;
58760;SDS011;44529;47.464;19.014;2022-11-02T09:31:53;30.65;;;20.48;;
58760;SDS011;44529;47.464;19.014;2022-11-02T09:34:55;31.33;;;20.67;;
58760;SDS011;44529;47.464;19.014;2022-11-02T09:37:57;28.38;;;19.27;;
58760;SDS011;44529;47.464;19.014;2022-11-02T09:41:05;30.00;;;20.30;;
58760;SDS011;44529;47.464;19.014;2022-11-02T09:44:25;31.45;;;19.73;;
58760;SDS011;44529;47.464;19.014;2022-11-02T09:47:58;27.90;;;19.17;;
58760;SDS011;44529;47.464;19.014;2022-11-02T09:51:27;27.50;;;19.35;;
58760;SDS011;44529;47.464;19.014;2022-11-02T09:57:47;30.50;;;19.98;;
58760;SDS011;44529;47.464;19.014;2022-11-02T10:00:56;28.38;;;20.05;;
58760;SDS011;44529;47.464;19.014;2022-11-02T10:04:09;29.42;;;19.65;;
58760;SDS011;44529;47.464;19.014;2022-11-02T10:07:37;26.62;;;19.60;;
58760;SDS011;44529;47.464;19.014;2022-11-02T10:14:34;30.37;;;19.87;;
58760;SDS011;44529;47.464;19.014;2022-11-02T10:17:40;37.03;;;20.60;;
58760;SDS011;44529;47.464;19.014;2022-11-02T10:20:44;30.27;;;20.33;;
58760;SDS011;44529;47.464;19.014;2022-11-02T10:23:50;28.00;;;19.48;;
58760;SDS011;44529;47.464;19.014;2022-11-02T10:27:00;29.08;;;20.20;;
58760;SDS011;44529;47.464;19.014;2022-11-02T10:30:13;34.65;;;22.13;;
58760;SDS011;44529;47.464;19.014;2022-11-02T10:33:20;34.45;;;22.50;;
58760;SDS011;44529;47.464;19.014;2022-11-02T10:39:51;29.25;;;19.80;;
58760;SDS011;44529;47.464;19.014;2022-11-02T10:43:33;27.40;;;19.90;;
58760;SDS011;44529;47.464;19.014;2022-11-02T10:46:52;29.98;;;19.90;;
58760;SDS011;44529;47.464;19.014;2022-11-02T10:50:01;31.07;;;19.70;;
58760;SDS011;44529;47.464;19.014;2022-11-02T10:53:15;30.90;;;19.80;;
58760;SDS011;44529;47.464;19.014;2022-11-02T10:56:42;29.02;;;19.05;;
58760;SDS011;44529;47.464;19.014;2022-11-02T11:03:27;32.22;;;20.10;;
58760;SDS011;44529;47.464;19.014;2022-11-02T11:06:30;27.25;;;18.70;;
58760;SDS011;44529;47.464;19.014;2022-11-02T11:09:38;29.37;;;18.95;;
58760;SDS011;44529;47.464;19.014;2022-11-02T11:12:49;28.02;;;19.85;;
58760;SDS011;44529;47.464;19.014;2022-11-02T11:15:51;27.27;;;18.60;;
58760;SDS011;44529;47.464;19.014;2022-11-02T11:18:54;29.70;;;19.80;;
58760;SDS011;44529;47.464;19.014;2022-11-02T11:22:35;28.12;;;18.70;;
58760;SDS011;44529;47.464;19.014;2022-11-02T11:25:39;28.80;;;18.30;;
58760;SDS011;44529;47.464;19.014;2022-11-02T11:28:53;23.15;;;17.10;;
58760;SDS011;44529;47.464;19.014;2022-11-02T11:31:56;31.87;;;19.10;;
58760;SDS011;44529;47.464;19.014;2022-11-02T11:35:01;23.87;;;16.95;;
58760;SDS011;44529;47.464;19.014;2022-11-02T11:38:07;27.83;;;18.12;;
58760;SDS011;44529;47.464;19.014;2022-11-02T11:41:31;28.62;;;17.80;;
58760;SDS011;44529;47.464;19.014;2022-11-02T11:44:35;26.08;;;17.90;;
58760;SDS011;44529;47.464;19.014;2022-11-02T11:47:38;22.48;;;16.55;;
58760;SDS011;44529;47.464;19.014;2022-11-02T11:50:45;29.48;;;16.65;;
58760;SDS011;44529;47.464;19.014;2022-11-02T11:54:05;25.05;;;16.50;;
58760;SDS011;44529;47.464;19.014;2022-11-02T11:57:24;25.88;;;16.75;;
58760;SDS011;44529;47.464;19.014;2022-11-02T12:00:30;24.60;;;15.98;;
58760;SDS011;44529;47.464;19.014;2022-11-02T12:03:48;23.67;;;15.73;;
58760;SDS011;44529;47.464;19.014;2022-11-02T12:10:17;23.00;;;15.10;;
58760;SDS011;44529;47.464;19.014;2022-11-02T12:39:52;20.37;;;12.15;;
58760;SDS011;44529;47.464;19.014;2022-11-02T12:46:39;18.02;;;12.98;;
58760;SDS011;44529;47.464;19.014;2022-11-02T12:56:37;18.85;;;13.65;;
58760;SDS011;44529;47.464;19.014;2022-11-02T12:59:51;19.98;;;13.35;;
58760;SDS011;44529;47.464;19.014;2022-11-02T13:03:06;21.55;;;15.27;;
58760;SDS011;44529;47.464;19.014;2022-11-02T13:06:30;18.87;;;13.07;;
58760;SDS011;44529;47.464;19.014;2022-11-02T13:13:18;19.30;;;12.75;;
58760;SDS011;44529;47.464;19.014;2022-11-02T13:16:37;18.12;;;11.10;;
58760;SDS011;44529;47.464;19.014;2022-11-02T13:19:51;16.02;;;11.02;;
58760;SDS011;44529;47.464;19.014;2022-11-02T13:26:27;15.27;;;12.05;;
58760;SDS011;44529;47.464;19.014;2022-11-02T13:29:45;16.75;;;11.27;;
58760;SDS011;44529;47.464;19.014;2022-11-02T13:32:58;16.83;;;11.55;;
58760;SDS011;44529;47.464;19.014;2022-11-02T13:36:06;15.32;;;10.90;;
58760;SDS011;44529;47.464;19.014;2022-11-02T13:39:16;18.25;;;10.77;;
58760;SDS011;44529;47.464;19.014;2022-11-02T13:42:27;16.58;;;10.45;;
58760;SDS011;44529;47.464;19.014;2022-11-02T13:51:57;15.65;;;10.40;;
58760;SDS011;44529;47.464;19.014;2022-11-02T13:55:04;17.10;;;10.82;;
58760;SDS011;44529;47.464;19.014;2022-11-02T13:58:17;14.50;;;10.15;;
58760;SDS011;44529;47.464;19.014;2022-11-02T14:01:21;12.82;;;9.70;;
58760;SDS011;44529;47.464;19.014;2022-11-02T14:04:25;16.55;;;9.40;;
58760;SDS011;44529;47.464;19.014;2022-11-02T14:07:32;12.85;;;9.48;;
58760;SDS011;44529;47.464;19.014;2022-11-02T14:10:39;14.43;;;9.15;;
58760;SDS011;44529;47.464;19.014;2022-11-02T14:16:57;13.25;;;9.07;;
58760;SDS011;44529;47.464;19.014;2022-11-02T14:20:00;12.32;;;9.20;;
58760;SDS011;44529;47.464;19.014;2022-11-02T14:26:28;9.02;;;6.10;;
58760;SDS011;44529;47.464;19.014;2022-11-02T14:29:36;9.18;;;5.00;;
58760;SDS011;44529;47.464;19.014;2022-11-02T14:32:58;4.82;;;4.32;;
58760;SDS011;44529;47.464;19.014;2022-11-02T14:39:27;7.68;;;5.25;;
58760;SDS011;44529;47.464;19.014;2022-11-02T14:49:51;8.80;;;4.47;;
58760;SDS011;44529;47.464;19.014;2022-11-02T14:53:04;9.80;;;4.25;;
58760;SDS011;44529;47.464;19.014;2022-11-02T14:56:10;6.53;;;4.53;;
58760;SDS011;44529;47.464;19.014;2022-11-02T14:59:19;8.57;;;4.65;;
58760;SDS011;44529;47.464;19.014;2022-11-02T15:02:37;7.20;;;4.62;;
58760;SDS011;44529;47.464;19.014;2022-11-02T15:05:44;10.13;;;4.57;;
58760;SDS011;44529;47.464;19.014;2022-11-02T15:08:48;10.45;;;4.62;;
58760;SDS011;44529;47.464;19.014;2022-11-02T15:11:56;7.03;;;4.80;;
58760;SDS011;44529;47.464;19.014;2022-11-02T15:18:39;5.22;;;3.95;;
58760;SDS011;44529;47.464;19.014;2022-11-02T15:21:41;5.47;;;4.25;;
58760;SDS011;44529;47.464;19.014;2022-11-02T15:24:44;8.20;;;4.47;;
58760;SDS011;44529;47.464;19.014;2022-11-02T15:27:47;7.57;;;4.18;;
58760;SDS011;44529;47.464;19.014;2022-11-02T15:30:53;5.87;;;4.18;;
58760;SDS011;44529;47.464;19.014;2022-11-02T15:34:00;9.07;;;4.37;;
58760;SDS011;44529;47.464;19.014;2022-11-02T15:37:05;7.47;;;4.75;;
58760;SDS011;44529;47.464;19.014;2022-11-02T15:40:10;8.70;;;4.65;;
58760;SDS011;44529;47.464;19.014;2022-11-02T15:46:58;11.00;;;4.90;;
58760;SDS011;44529;47.464;19.014;2022-11-02T16:03:15;11.63;;;6.18;;
58760;SDS011;44529;47.464;19.014;2022-11-02T16:09:36;8.07;;;5.80;;
58760;SDS011;44529;47.464;19.014;2022-11-02T16:12:39;9.40;;;5.93;;
58760;SDS011;44529;47.464;19.014;2022-11-02T16:15:41;9.40;;;6.53;;
58760;SDS011;44529;47.464;19.014;2022-11-02T16:18:48;16.48;;;6.62;;
58760;SDS011;44529;47.464;19.014;2022-11-02T16:21:58;13.35;;;6.80;;
58760;SDS011;44529;47.464;19.014;2022-11-02T16:25:10;12.32;;;7.15;;
58760;SDS011;44529;47.464;19.014;2022-11-02T16:28:18;14.73;;;7.72;;
58760;SDS011;44529;47.464;19.014;2022-11-02T16:34:32;11.25;;;7.05;;
58760;SDS011;44529;47.464;19.014;2022-11-02T16:37:34;11.50;;;6.93;;
58760;SDS011;44529;47.464;19.014;2022-11-02T16:40:37;8.60;;;6.50;;
58760;SDS011;44529;47.464;19.014;2022-11-02T16:43:41;12.15;;;7.37;;
58760;SDS011;44529;47.464;19.014;2022-11-02T16:46:47;10.10;;;7.15;;
58760;SDS011;44529;47.464;19.014;2022-11-02T16:52:56;8.15;;;6.12;;
58760;SDS011;44529;47.464;19.014;2022-11-02T16:56:15;10.18;;;6.65;;
58760;SDS011;44529;47.464;19.014;2022-11-02T16:59:31;9.82;;;6.40;;
58760;SDS011;44529;47.464;19.014;2022-11-02T17:02:40;8.70;;;6.93;;
58760;SDS011;44529;47.464;19.014;2022-11-02T17:05:46;9.88;;;6.32;;
58760;SDS011;44529;47.464;19.014;2022-11-02T17:08:50;12.70;;;6.87;;
58760;SDS011;44529;47.464;19.014;2022-11-02T17:11:59;12.18;;;8.10;;
58760;SDS011;44529;47.464;19.014;2022-11-02T17:15:21;11.95;;;7.97;;
58760;SDS011;44529;47.464;19.014;2022-11-02T17:18:27;16.12;;;9.18;;
58760;SDS011;44529;47.464;19.014;2022-11-02T17:21:29;18.25;;;10.75;;
58760;SDS011;44529;47.464;19.014;2022-11-02T17:24:32;21.27;;;12.73;;
58760;SDS011;44529;47.464;19.014;2022-11-02T17:27:37;18.65;;;11.77;;
58760;SDS011;44529;47.464;19.014;2022-11-02T17:30:43;19.92;;;12.27;;
58760;SDS011;44529;47.464;19.014;2022-11-02T17:33:47;16.35;;;10.60;;
58760;SDS011;44529;47.464;19.014;2022-11-02T17:36:50;17.17;;;10.18;;
58760;SDS011;44529;47.464;19.014;2022-11-02T17:39:53;18.87;;;11.88;;
58760;SDS011;44529;47.464;19.014;2022-11-02T17:42:56;20.80;;;13.38;;
58760;SDS011;44529;47.464;19.014;2022-11-02T17:46:02;20.27;;;13.43;;
58760;SDS011;44529;47.464;19.014;2022-11-02T17:49:05;17.62;;;13.48;;
58760;SDS011;44529;47.464;19.014;2022-11-02T17:52:09;21.73;;;13.75;;
58760;SDS011;44529;47.464;19.014;2022-11-02T17:55:16;20.00;;;13.25;;
58760;SDS011;44529;47.464;19.014;2022-11-02T17:58:20;20.12;;;12.70;;
58760;SDS011;44529;47.464;19.014;2022-11-02T18:01:22;19.60;;;12.98;;
58760;SDS011;44529;47.464;19.014;2022-11-02T18:04:25;19.52;;;12.73;;
58760;SDS011;44529;47.464;19.014;2022-11-02T18:07:27;21.52;;;13.05;;
58760;SDS011;44529;47.464;19.014;2022-11-02T18:10:30;20.30;;;13.70;;
58760;SDS011;44529;47.464;19.014;2022-11-02T18:13:43;24.00;;;13.82;;
58760;SDS011;44529;47.464;19.014;2022-11-02T18:16:45;16.23;;;12.43;;
58760;SDS011;44529;47.464;19.014;2022-11-02T18:19:48;22.35;;;13.57;;
58760;SDS011;44529;47.464;19.014;2022-11-02T18:22:51;22.17;;;12.85;;
58760;SDS011;44529;47.464;19.014;2022-11-02T18:25:53;16.92;;;11.18;;
58760;SDS011;44529;47.464;19.014;2022-11-02T18:29:00;14.98;;;9.90;;
58760;SDS011;44529;47.464;19.014;2022-11-02T18:32:04;12.70;;;6.12;;
58760;SDS011;44529;47.464;19.014;2022-11-02T18:35:15;6.00;;;4.47;;
58760;SDS011;44529;47.464;19.014;2022-11-02T18:38:18;6.95;;;4.37;;
58760;SDS011;44529;47.464;19.014;2022-11-02T18:41:21;5.85;;;3.83;;
58760;SDS011;44529;47.464;19.014;2022-11-02T18:44:30;5.78;;;3.62;;
58760;SDS011;44529;47.464;19.014;2022-11-02T18:47:33;5.37;;;3.90;;
58760;SDS011;44529;47.464;19.014;2022-11-02T18:50:35;5.70;;;3.80;;
58760;SDS011;44529;47.464;19.014;2022-11-02T18:53:38;4.75;;;3.75;;
58760;SDS011;44529;47.464;19.014;2022-11-02T18:56:40;6.07;;;3.85;;
58760;SDS011;44529;47.464;19.014;2022-11-02T18:59:42;4.45;;;3.60;;
58760;SDS011;44529;47.464;19.014;2022-11-02T19:02:44;5.85;;;3.65;;
58760;SDS011;44529;47.464;19.014;2022-11-02T19:05:47;5.32;;;4.35;;
58760;SDS011;44529;47.464;19.014;2022-11-02T19:09:08;7.35;;;4.68;;
58760;SDS011;44529;47.464;19.014;2022-11-02T19:12:22;7.97;;;4.62;;
58760;SDS011;44529;47.464;19.014;2022-11-02T19:15:27;5.80;;;4.35;;
58760;SDS011;44529;47.464;19.014;2022-11-02T19:18:29;4.65;;;4.12;;
58760;SDS011;44529;47.464;19.014;2022-11-02T19:21:31;7.20;;;4.32;;
58760;SDS011;44529;47.464;19.014;2022-11-02T19:24:34;6.40;;;4.32;;
58760;SDS011;44529;47.464;19.014;2022-11-02T19:27:36;5.47;;;3.87;;
58760;SDS011;44529;47.464;19.014;2022-11-02T19:30:38;4.55;;;3.87;;
58760;SDS011;44529;47.464;19.014;2022-11-02T19:33:40;5.45;;;4.53;;
58760;SDS011;44529;47.464;19.014;2022-11-02T19:36:43;9.18;;;4.50;;
58760;SDS011;44529;47.464;19.014;2022-11-02T19:39:45;8.95;;;4.20;;
58760;SDS011;44529;47.464;19.014;2022-11-02T19:42:47;5.35;;;3.80;;
58760;SDS011;44529;47.464;19.014;2022-11-02T19:45:49;5.28;;;3.92;;
58760;SDS011;44529;47.464;19.014;2022-11-02T19:48:52;4.62;;;4.03;;
58760;SDS011;44529;47.464;19.014;2022-11-02T19:51:54;5.85;;;4.72;;
58760;SDS011;44529;47.464;19.014;2022-11-02T19:54:57;7.00;;;5.10;;
58760;SDS011;44529;47.464;19.014;2022-11-02T19:57:59;6.62;;;4.60;;
58760;SDS011;44529;47.464;19.014;2022-11-02T20:01:11;8.10;;;5.10;;
58760;SDS011;44529;47.464;19.014;2022-11-02T20:04:15;6.25;;;4.32;;
58760;SDS011;44529;47.464;19.014;2022-11-02T20:07:18;4.95;;;4.32;;
58760;SDS011;44529;47.464;19.014;2022-11-02T20:10:21;5.85;;;4.78;;
58760;SDS011;44529;47.464;19.014;2022-11-02T20:13:23;8.82;;;4.57;;
58760;SDS011;44529;47.464;19.014;2022-11-02T20:16:25;9.48;;;4.90;;
58760;SDS011;44529;47.464;19.014;2022-11-02T20:19:28;7.87;;;5.20;;
58760;SDS011;44529;47.464;19.014;2022-11-02T20:22:30;8.32;;;5.03;;
58760;SDS011;44529;47.464;19.014;2022-11-02T20:25:32;7.30;;;4.87;;
58760;SDS011;44529;47.464;19.014;2022-11-02T20:28:35;5.97;;;4.68;;